createdAt,value
2023-03-15T00:00:22.372Z,6.15
2023-03-15T00:02:49.032Z,5.85
2023-03-15T00:05:15.677Z,5.28
2023-03-15T00:07:42.241Z,5.40
2023-03-15T00:10:09.243Z,5.72
2023-03-15T00:12:35.762Z,6.07
2023-03-15T00:15:02.365Z,8.95
2023-03-15T00:17:28.902Z,4.38
2023-03-15T00:19:55.446Z,3.95
2023-03-15T00:22:23.365Z,6.78
2023-03-15T00:24:49.931Z,14.98
2023-03-15T00:27:16.515Z,9.10
2023-03-15T00:29:43.089Z,7.38
2023-03-15T00:32:09.853Z,5.32
2023-03-15T00:34:36.476Z,6.68
2023-03-15T00:37:03.029Z,4.20
2023-03-15T00:39:29.605Z,8.55
2023-03-15T00:41:57.032Z,5.35
2023-03-15T00:44:24.637Z,6.93
2023-03-15T00:46:51.421Z,7.40
2023-03-15T00:49:18.325Z,6.03
2023-03-15T00:51:44.923Z,5.55
2023-03-15T00:54:13.860Z,5.60
2023-03-15T00:56:41.524Z,5.22
2023-03-15T00:59:08.773Z,5.07
2023-03-15T01:01:35.727Z,6.90
2023-03-15T01:04:02.330Z,6.97
2023-03-15T01:06:29.431Z,7.38
2023-03-15T01:08:57.155Z,9.95
2023-03-15T01:11:26.922Z,5.80
2023-03-15T01:13:55.852Z,5.45
2023-03-15T01:16:22.975Z,8.25
2023-03-15T01:18:51.740Z,6.50
2023-03-15T01:21:19.570Z,6.35
2023-03-15T01:23:46.574Z,7.78
2023-03-15T01:26:15.236Z,6.63
2023-03-15T01:28:42.508Z,5.57
2023-03-15T01:31:22.546Z,8.88
2023-03-15T01:33:49.230Z,5.25
2023-03-15T01:36:16.015Z,7.40
2023-03-15T01:38:42.850Z,6.00
2023-03-15T01:41:14.428Z,5.97
2023-03-15T01:43:47.327Z,4.85
2023-03-15T01:46:20.280Z,6.18
2023-03-15T01:49:03.078Z,5.15
2023-03-15T01:51:32.270Z,11.65
2023-03-15T01:54:15.914Z,7.15
2023-03-15T01:56:48.417Z,6.25
2023-03-15T01:59:24.163Z,11.60
2023-03-15T02:01:54.674Z,6.18
2023-03-15T02:04:28.255Z,6.25
2023-03-15T02:06:59.629Z,7.95
2023-03-15T02:09:35.067Z,6.22
2023-03-15T02:12:03.353Z,7.47
2023-03-15T02:14:30.069Z,7.47
2023-03-15T02:16:56.627Z,6.05
2023-03-15T02:19:40.850Z,8.98
2023-03-15T02:22:21.779Z,6.60
2023-03-15T02:25:22.569Z,6.72
2023-03-15T02:27:49.409Z,6.97
2023-03-15T02:30:15.920Z,7.40
2023-03-15T02:32:42.611Z,10.02
2023-03-15T02:35:09.526Z,7.72
2023-03-15T02:37:36.123Z,7.85
2023-03-15T02:40:03.248Z,6.05
2023-03-15T02:42:29.769Z,4.85
2023-03-15T02:44:57.556Z,6.07
2023-03-15T02:47:29.498Z,6.28
2023-03-15T02:49:56.059Z,7.03
2023-03-15T02:52:23.249Z,6.80
2023-03-15T02:54:50.434Z,7.95
2023-03-15T02:57:19.304Z,12.35
2023-03-15T02:59:45.933Z,6.80
2023-03-15T03:02:12.976Z,6.68
2023-03-15T03:04:39.987Z,8.35
2023-03-15T03:07:06.563Z,6.60
2023-03-15T03:09:33.373Z,6.72
2023-03-15T03:11:59.890Z,5.80
2023-03-15T03:14:26.516Z,7.28
2023-03-15T03:16:53.089Z,6.72
2023-03-15T03:19:19.668Z,4.95
2023-03-15T03:21:46.202Z,6.20
2023-03-15T03:24:16.122Z,5.95
2023-03-15T03:26:46.217Z,7.00
2023-03-15T03:29:16.663Z,6.95
2023-03-15T03:31:45.369Z,9.18
2023-03-15T03:34:15.478Z,6.65
2023-03-15T03:36:43.275Z,10.93
2023-03-15T03:39:10.698Z,10.27
2023-03-15T03:41:37.747Z,7.25
2023-03-15T03:44:04.477Z,8.27
2023-03-15T03:46:31.378Z,6.75
2023-03-15T03:48:57.973Z,8.13
2023-03-15T03:51:24.485Z,9.57
2023-03-15T03:53:51.102Z,8.30
2023-03-15T03:56:17.653Z,7.03
2023-03-15T03:58:44.173Z,7.35
2023-03-15T04:01:11.705Z,5.90
2023-03-15T04:03:38.240Z,5.82
2023-03-15T04:06:05.654Z,6.70
2023-03-15T04:08:32.507Z,7.07
2023-03-15T04:10:59.165Z,7.72
2023-03-15T04:13:26.228Z,10.73
2023-03-15T04:15:57.609Z,6.95
2023-03-15T04:18:24.773Z,7.07
2023-03-15T04:20:54.643Z,12.73
2023-03-15T04:23:23.291Z,7.80
2023-03-15T04:25:55.181Z,6.35
2023-03-15T04:28:22.859Z,6.45
2023-03-15T04:30:50.631Z,8.35
2023-03-15T04:33:17.208Z,9.43
2023-03-15T04:35:43.836Z,8.55
2023-03-15T04:38:10.717Z,10.25
2023-03-15T04:40:37.361Z,11.02
2023-03-15T04:43:05.323Z,6.85
2023-03-15T04:45:32.860Z,7.68
2023-03-15T04:47:59.948Z,7.53
2023-03-15T04:50:26.526Z,6.55
2023-03-15T04:52:53.617Z,7.65
2023-03-15T04:55:20.412Z,9.77
2023-03-15T04:57:46.956Z,7.38
2023-03-15T05:00:14.403Z,9.93
2023-03-15T05:02:41.865Z,7.55
2023-03-15T05:05:09.882Z,6.60
2023-03-15T05:07:37.397Z,6.88
2023-03-15T05:10:05.238Z,8.10
2023-03-15T05:12:33.713Z,6.03
2023-03-15T05:15:00.547Z,6.57
2023-03-15T05:17:27.119Z,6.43
2023-03-15T05:19:53.649Z,6.38
2023-03-15T05:22:25.454Z,7.40
2023-03-15T05:24:53.694Z,8.27
2023-03-15T05:27:20.902Z,6.60
2023-03-15T05:29:47.598Z,7.45
2023-03-15T05:32:14.200Z,7.97
2023-03-15T05:34:40.813Z,9.02
2023-03-15T05:37:07.449Z,6.80
2023-03-15T05:39:34.727Z,9.95
2023-03-15T05:42:02.083Z,7.55
2023-03-15T05:44:28.678Z,12.35
2023-03-15T05:46:55.430Z,7.90
2023-03-15T05:49:22.064Z,10.40
2023-03-15T05:51:48.614Z,7.38
2023-03-15T05:54:15.138Z,7.35
2023-03-15T05:56:41.671Z,8.43
2023-03-15T05:59:08.244Z,15.25
2023-03-15T06:01:34.754Z,7.45
2023-03-15T06:04:01.303Z,7.80
2023-03-15T06:06:27.975Z,7.03
2023-03-15T06:08:55.003Z,7.07
2023-03-15T06:11:21.982Z,7.60
2023-03-15T06:13:48.537Z,6.72
2023-03-15T06:16:15.114Z,6.65
2023-03-15T06:18:41.693Z,7.72
2023-03-15T06:21:08.626Z,6.60
2023-03-15T06:23:35.143Z,5.80
2023-03-15T06:26:01.658Z,7.57
2023-03-15T06:28:28.240Z,6.13
2023-03-15T06:30:54.817Z,6.80
2023-03-15T06:33:21.567Z,6.30
2023-03-15T06:35:48.160Z,7.28
2023-03-15T06:38:15.242Z,8.15
2023-03-15T06:40:41.814Z,8.32
2023-03-15T06:43:08.865Z,6.82
2023-03-15T06:45:35.481Z,7.80
2023-03-15T06:48:02.064Z,5.00
2023-03-15T06:50:34.443Z,7.05
2023-03-15T06:53:11.027Z,6.47
2023-03-15T06:55:37.585Z,7.15
2023-03-15T06:58:04.125Z,7.15
2023-03-15T07:00:31.164Z,7.32
2023-03-15T07:02:57.875Z,5.97
2023-03-15T07:05:24.560Z,5.80
2023-03-15T07:07:51.079Z,7.25
2023-03-15T07:10:17.895Z,5.70
2023-03-15T07:12:44.498Z,5.35
2023-03-15T07:15:11.937Z,6.05
2023-03-15T07:17:38.500Z,6.75
2023-03-15T07:20:08.274Z,6.50
2023-03-15T07:22:35.090Z,10.85
2023-03-15T07:25:01.729Z,5.53
2023-03-15T07:27:29.253Z,11.40
2023-03-15T07:29:55.802Z,5.85
2023-03-15T07:32:22.531Z,7.03
2023-03-15T07:34:49.138Z,5.45
2023-03-15T07:37:17.310Z,6.93
2023-03-15T07:39:43.854Z,5.55
2023-03-15T07:42:11.489Z,6.22
2023-03-15T07:44:38.037Z,6.03
2023-03-15T07:47:04.813Z,5.53
2023-03-15T07:49:31.866Z,5.07
2023-03-15T07:51:58.394Z,6.65
2023-03-15T07:54:24.993Z,10.00
2023-03-15T07:56:51.543Z,5.75
2023-03-15T07:59:18.118Z,7.47
2023-03-15T08:01:44.755Z,6.53
2023-03-15T08:04:11.389Z,5.70
2023-03-15T08:06:37.940Z,4.20
2023-03-15T08:09:05.805Z,4.22
2023-03-15T08:11:33.417Z,8.70
2023-03-15T08:14:00.093Z,7.95
2023-03-15T08:16:26.844Z,7.78
2023-03-15T08:18:53.491Z,5.45
2023-03-15T08:21:20.062Z,7.20
2023-03-15T08:23:46.628Z,8.32
2023-03-15T08:26:13.196Z,4.53
2023-03-15T08:28:39.725Z,5.75
2023-03-15T08:31:10.133Z,5.03
2023-03-15T08:33:36.724Z,7.70
2023-03-15T08:36:03.357Z,6.10
2023-03-15T08:38:29.924Z,5.78
2023-03-15T08:40:57.814Z,4.10
2023-03-15T08:43:24.569Z,5.90
2023-03-15T08:46:00.552Z,4.72
2023-03-15T08:48:28.329Z,3.95
2023-03-15T08:50:54.979Z,4.68
2023-03-15T08:53:21.574Z,8.70
2023-03-15T08:55:49.485Z,5.25
2023-03-15T08:58:16.155Z,4.68
2023-03-15T09:00:42.687Z,4.60
2023-03-15T09:03:09.221Z,5.63
2023-03-15T09:05:36.760Z,5.30
2023-03-15T09:08:03.480Z,5.75
2023-03-15T09:10:30.037Z,5.60
2023-03-15T09:12:56.627Z,5.25
2023-03-15T09:15:23.298Z,6.00
2023-03-15T09:17:53.072Z,9.68
2023-03-15T09:20:22.887Z,5.88
2023-03-15T09:22:54.982Z,5.22
2023-03-15T09:25:22.330Z,5.93
2023-03-15T09:27:49.135Z,5.63
2023-03-15T09:30:16.066Z,7.20
2023-03-15T09:32:44.120Z,5.18
2023-03-15T09:35:14.833Z,5.57
2023-03-15T09:37:42.489Z,4.75
2023-03-15T09:40:30.928Z,5.25
2023-03-15T09:43:03.591Z,5.68
2023-03-15T09:45:50.346Z,5.32
2023-03-15T09:48:21.454Z,9.40
2023-03-15T09:51:16.155Z,5.65
2023-03-15T09:53:51.113Z,6.22
2023-03-15T09:56:27.195Z,6.07
2023-03-15T09:58:58.424Z,5.32
2023-03-15T10:01:32.986Z,5.57
2023-03-15T10:04:08.040Z,4.90
2023-03-15T10:06:37.741Z,6.60
2023-03-15T10:09:13.851Z,8.70
2023-03-15T10:14:41.173Z,3.95
2023-03-15T10:17:13.238Z,5.80
2023-03-15T10:19:47.165Z,4.93
2023-03-15T10:22:13.636Z,8.73
2023-03-15T10:25:02.277Z,5.10
2023-03-15T10:27:43.646Z,4.90
2023-03-15T10:30:17.312Z,5.55
2023-03-15T10:32:47.805Z,4.28
2023-03-15T10:35:19.001Z,4.68
2023-03-15T10:37:45.782Z,4.03
2023-03-15T10:40:16.388Z,5.57
2023-03-15T10:42:47.208Z,4.63
2023-03-15T10:45:23.121Z,3.78
2023-03-15T10:50:32.259Z,4.07
2023-03-15T10:53:02.002Z,4.30
2023-03-15T10:55:36.921Z,6.07
2023-03-15T10:58:27.970Z,4.70
2023-03-15T11:01:01.834Z,4.10
2023-03-15T11:03:29.083Z,3.47
2023-03-15T11:05:58.407Z,4.13
2023-03-15T11:08:39.884Z,2.95
2023-03-15T11:11:07.595Z,4.00
2023-03-15T11:13:39.405Z,5.13
2023-03-15T11:16:17.939Z,4.50
2023-03-15T11:18:54.858Z,4.65
2023-03-15T11:21:25.383Z,5.15
2023-03-15T11:23:53.857Z,3.72
2023-03-15T11:26:32.209Z,4.03
2023-03-15T11:29:06.052Z,4.35
2023-03-15T11:31:35.463Z,3.65
2023-03-15T11:34:12.452Z,3.78
2023-03-15T11:36:43.789Z,3.47
2023-03-15T11:39:15.507Z,4.32
2023-03-15T11:41:55.145Z,3.60
2023-03-15T11:44:33.554Z,3.25
2023-03-15T11:47:37.479Z,6.82
2023-03-15T11:50:04.741Z,2.90
2023-03-15T11:52:32.024Z,2.88
2023-03-15T11:55:01.597Z,4.22
2023-03-15T11:57:44.274Z,3.88
2023-03-15T12:00:21.094Z,6.55
2023-03-15T12:03:29.547Z,4.28
2023-03-15T12:06:05.613Z,3.03
2023-03-15T12:08:40.941Z,3.45
2023-03-15T12:11:37.578Z,4.32
2023-03-15T12:14:06.847Z,4.15
2023-03-15T12:16:41.954Z,3.08
2023-03-15T12:19:18.489Z,4.00
2023-03-15T12:21:49.544Z,4.47
2023-03-15T12:24:23.694Z,4.60
2023-03-15T12:26:58.481Z,4.07
2023-03-15T12:29:30.278Z,4.53
2023-03-15T12:31:58.809Z,5.22
2023-03-15T12:34:44.598Z,4.78
2023-03-15T12:37:22.151Z,3.67
2023-03-15T12:40:00.513Z,5.20
2023-03-15T12:42:31.210Z,4.43
2023-03-15T12:45:16.210Z,5.88
2023-03-15T12:48:08.662Z,6.90
2023-03-15T12:50:44.396Z,5.63
2023-03-15T12:53:21.640Z,4.28
2023-03-15T12:55:50.164Z,4.22
2023-03-15T12:58:22.289Z,4.03
2023-03-15T13:00:52.514Z,4.65
2023-03-15T13:03:25.922Z,3.60
2023-03-15T13:06:12.972Z,3.08
2023-03-15T13:08:50.518Z,3.47
2023-03-15T13:11:23.776Z,5.03
2023-03-15T13:14:12.133Z,4.20
2023-03-15T13:16:46.402Z,5.93
2023-03-15T13:19:18.686Z,3.83
2023-03-15T13:21:56.685Z,6.05
2023-03-15T13:25:00.711Z,7.70
2023-03-15T13:27:53.360Z,4.35
2023-03-15T13:30:47.741Z,6.45
2023-03-15T13:33:31.825Z,3.63
2023-03-15T13:36:01.689Z,9.77
2023-03-15T13:38:35.349Z,4.47
2023-03-15T13:41:04.651Z,4.57
2023-03-15T13:43:37.620Z,5.28
2023-03-15T13:46:04.737Z,4.10
2023-03-15T13:48:34.087Z,3.90
2023-03-15T13:51:37.373Z,3.45
2023-03-15T13:54:07.253Z,4.15
2023-03-15T13:56:48.833Z,4.43
2023-03-15T13:59:17.489Z,3.83
2023-03-15T14:01:44.174Z,4.03
2023-03-15T14:04:17.902Z,6.00
2023-03-15T14:06:45.821Z,3.53
2023-03-15T14:09:28.058Z,6.07
2023-03-15T14:12:03.295Z,7.35
2023-03-15T14:14:31.832Z,4.28
2023-03-15T14:17:05.690Z,4.75
2023-03-15T14:19:34.624Z,5.13
2023-03-15T14:22:04.017Z,4.32
2023-03-15T14:24:35.838Z,5.15
2023-03-15T14:27:09.344Z,4.57
2023-03-15T14:29:38.379Z,4.50
2023-03-15T14:32:08.037Z,3.22
2023-03-15T14:34:36.585Z,4.28
2023-03-15T14:37:09.978Z,4.22
2023-03-15T14:39:42.604Z,4.10
2023-03-15T14:42:12.298Z,3.08
2023-03-15T14:44:38.922Z,3.47
2023-03-15T14:47:16.652Z,3.70
2023-03-15T14:49:43.183Z,4.57
2023-03-15T14:52:13.375Z,4.15
2023-03-15T14:54:46.222Z,3.50
2023-03-15T14:57:12.831Z,3.28
2023-03-15T14:59:39.448Z,3.47
2023-03-15T15:02:06.466Z,3.72
2023-03-15T15:04:34.381Z,4.65
2023-03-15T15:07:03.277Z,4.22
2023-03-15T15:09:31.067Z,3.75
2023-03-15T15:11:57.607Z,4.80
2023-03-15T15:14:25.351Z,5.43
2023-03-15T15:16:52.350Z,4.70
2023-03-15T15:19:18.950Z,3.10
2023-03-15T15:21:45.608Z,4.18
2023-03-15T15:24:18.548Z,4.40
2023-03-15T15:26:45.152Z,3.58
2023-03-15T15:29:14.215Z,4.00
2023-03-15T15:31:41.650Z,3.92
2023-03-15T15:34:08.790Z,5.20
2023-03-15T15:36:45.444Z,4.40
2023-03-15T15:39:23.576Z,4.28
2023-03-15T15:41:50.343Z,4.43
2023-03-15T15:44:19.481Z,5.13
2023-03-15T15:46:46.104Z,5.55
2023-03-15T15:49:12.878Z,5.43
2023-03-15T15:51:42.796Z,5.38
2023-03-15T15:54:20.855Z,6.35
2023-03-15T15:57:06.790Z,6.68
2023-03-15T15:59:33.846Z,5.78
2023-03-15T16:02:02.215Z,5.85
2023-03-15T16:04:29.763Z,5.45
2023-03-15T16:06:59.667Z,6.55
2023-03-15T16:09:28.346Z,8.45
2023-03-15T16:11:55.250Z,7.97
2023-03-15T16:14:21.885Z,9.90
2023-03-15T16:16:48.565Z,9.77
2023-03-15T16:19:15.185Z,9.40
2023-03-15T16:21:48.035Z,9.18
2023-03-15T16:24:21.910Z,8.27
2023-03-15T16:26:49.868Z,11.20
2023-03-15T16:29:19.450Z,10.15
2023-03-15T16:31:47.216Z,21.13
2023-03-15T16:34:15.771Z,11.88
2023-03-15T16:36:47.725Z,11.00
2023-03-15T16:39:16.390Z,14.63
2023-03-15T16:41:42.973Z,12.23
2023-03-15T16:44:14.917Z,15.52
2023-03-15T16:46:41.687Z,13.73
2023-03-15T16:49:08.580Z,13.15
2023-03-15T16:51:37.521Z,10.32
2023-03-15T16:54:16.219Z,12.68
2023-03-15T16:56:46.751Z,15.90
2023-03-15T16:59:16.658Z,14.00
2023-03-15T17:01:44.252Z,12.70
2023-03-15T17:04:10.986Z,22.58
2023-03-15T17:06:37.743Z,13.52
2023-03-15T17:09:12.743Z,14.88
2023-03-15T17:11:42.326Z,12.73
2023-03-15T17:14:15.945Z,11.13
2023-03-15T17:16:42.706Z,12.32
2023-03-15T17:19:13.686Z,13.45
2023-03-15T17:21:42.256Z,13.50
2023-03-15T17:24:10.342Z,12.63
2023-03-15T17:26:38.220Z,12.27
2023-03-15T17:29:04.965Z,12.20
2023-03-15T17:31:34.255Z,15.35
2023-03-15T17:34:01.065Z,12.23
2023-03-15T17:36:32.877Z,14.40
2023-03-15T17:38:59.444Z,14.90
2023-03-15T17:41:28.681Z,11.75
2023-03-15T17:43:55.578Z,11.70
2023-03-15T17:46:33.138Z,14.45
2023-03-15T17:49:01.172Z,12.30
2023-03-15T17:51:30.449Z,14.20
2023-03-15T17:53:59.538Z,10.98
2023-03-15T17:56:27.256Z,14.90
2023-03-15T17:58:53.980Z,18.10
2023-03-15T18:01:23.229Z,11.20
2023-03-15T18:03:50.799Z,14.13
2023-03-15T18:06:19.200Z,11.30
2023-03-15T18:08:46.386Z,13.32
2023-03-15T18:11:22.410Z,16.80
2023-03-15T18:21:14.073Z,10.88
2023-03-15T18:23:40.916Z,13.52
2023-03-15T18:26:07.574Z,10.48
2023-03-15T18:28:34.078Z,14.90
2023-03-15T18:31:00.852Z,14.70
2023-03-15T18:33:27.438Z,15.88
2023-03-15T18:35:54.107Z,19.02
2023-03-15T18:38:20.663Z,23.88
2023-03-15T18:40:47.289Z,15.98
2023-03-15T18:43:14.569Z,18.58
2023-03-15T18:45:41.340Z,15.90
2023-03-15T18:48:07.935Z,18.85
2023-03-15T18:50:34.935Z,16.13
2023-03-15T18:53:03.984Z,16.33
2023-03-15T18:55:32.149Z,16.58
2023-03-15T18:57:58.682Z,18.00
2023-03-15T19:00:29.588Z,15.65
2023-03-15T19:02:59.263Z,18.40
2023-03-15T19:05:27.513Z,18.42
2023-03-15T19:07:54.245Z,14.48
2023-03-15T19:10:22.401Z,16.40
2023-03-15T19:12:49.312Z,14.52
2023-03-15T19:15:17.589Z,15.70
2023-03-15T19:17:49.676Z,16.95
2023-03-15T19:20:18.591Z,16.50
2023-03-15T19:22:45.228Z,17.00
2023-03-15T19:25:13.883Z,14.80
2023-03-15T19:27:42.295Z,14.73
2023-03-15T19:30:11.898Z,17.17
2023-03-15T19:32:40.440Z,15.45
2023-03-15T19:35:07.503Z,17.20
2023-03-15T19:37:34.258Z,18.95
2023-03-15T19:40:01.182Z,15.82
2023-03-15T19:42:27.736Z,17.30
2023-03-15T19:44:54.257Z,15.65
2023-03-15T19:47:20.847Z,14.98
2023-03-15T19:49:47.439Z,18.63
2023-03-15T19:52:15.935Z,16.42
2023-03-15T19:54:42.525Z,17.48
2023-03-15T19:57:09.067Z,14.05
2023-03-15T19:59:39.898Z,13.98
2023-03-15T20:02:11.248Z,18.77
2023-03-15T20:04:38.083Z,16.00
2023-03-15T20:07:06.168Z,13.57
2023-03-15T20:09:38.911Z,17.30
2023-03-15T20:12:07.110Z,16.60
2023-03-15T20:14:34.076Z,15.07
2023-03-15T20:17:01.919Z,18.38
2023-03-15T20:19:31.314Z,14.73
2023-03-15T20:21:58.779Z,13.35
2023-03-15T20:24:25.420Z,14.60
2023-03-15T20:26:52.864Z,21.83
2023-03-15T20:29:19.987Z,17.60
2023-03-15T20:31:46.676Z,13.85
2023-03-15T20:34:13.323Z,14.57
2023-03-15T20:36:39.834Z,17.20
2023-03-15T20:39:06.412Z,12.50
2023-03-15T20:41:33.318Z,14.48
2023-03-15T20:44:00.354Z,15.57
2023-03-15T20:46:27.341Z,13.45
2023-03-15T20:48:53.882Z,15.70
2023-03-15T20:51:21.116Z,16.15
2023-03-15T20:53:48.154Z,14.63
2023-03-15T20:56:14.840Z,14.07
2023-03-15T20:58:41.529Z,13.93
2023-03-15T21:01:10.554Z,20.63
2023-03-15T21:03:37.692Z,14.90
2023-03-15T21:06:05.969Z,14.45
2023-03-15T21:08:33.439Z,13.32
2023-03-15T21:11:00.504Z,14.23
2023-03-15T21:13:27.196Z,14.88
2023-03-15T21:15:54.288Z,13.40
2023-03-15T21:18:23.174Z,11.43
2023-03-15T21:20:58.224Z,12.15
2023-03-15T21:23:27.795Z,16.73
2023-03-15T21:25:55.673Z,13.25
2023-03-15T21:28:22.857Z,14.15
2023-03-15T21:30:53.441Z,12.52
2023-03-15T21:33:21.710Z,17.95
2023-03-15T21:35:48.599Z,15.38
2023-03-15T21:38:15.262Z,15.70
2023-03-15T21:40:46.770Z,12.43
2023-03-15T21:43:13.915Z,17.67
2023-03-15T21:45:42.066Z,13.38
2023-03-15T21:48:08.736Z,14.82
2023-03-15T21:50:36.528Z,12.75
2023-03-15T21:53:03.658Z,14.80
2023-03-15T21:55:33.510Z,12.90
2023-03-15T21:58:01.950Z,18.60
2023-03-15T22:00:29.814Z,14.50
2023-03-15T22:02:56.590Z,15.40
2023-03-15T22:05:23.587Z,18.35
2023-03-15T22:07:50.287Z,14.48
2023-03-15T22:10:18.801Z,17.10
2023-03-15T22:12:45.748Z,13.25
2023-03-15T22:15:13.339Z,14.93
2023-03-15T22:17:39.945Z,19.70
2023-03-15T22:20:16.434Z,13.52
2023-03-15T22:22:47.235Z,17.67
2023-03-15T22:25:14.093Z,14.43
2023-03-15T22:27:41.759Z,17.58
2023-03-15T22:30:09.994Z,17.63
2023-03-15T22:32:36.540Z,13.07
2023-03-15T22:35:04.088Z,12.75
2023-03-15T22:37:34.660Z,17.23
2023-03-15T22:40:01.230Z,13.13
2023-03-15T22:42:27.900Z,18.30
2023-03-15T22:44:54.435Z,13.50
2023-03-15T22:47:20.981Z,15.48
2023-03-15T22:49:47.546Z,15.35
2023-03-15T22:52:14.383Z,15.80
2023-03-15T22:54:44.242Z,14.45
2023-03-15T22:57:11.426Z,14.45
2023-03-15T22:59:38.906Z,17.42
2023-03-15T23:02:05.559Z,14.57
2023-03-15T23:04:32.211Z,16.90
2023-03-15T23:06:58.760Z,19.52
2023-03-15T23:09:25.351Z,15.20
2023-03-15T23:11:51.960Z,19.40
2023-03-15T23:14:18.491Z,15.65
2023-03-15T23:16:45.016Z,12.48
2023-03-15T23:19:13.482Z,17.60
2023-03-15T23:21:40.287Z,11.73
2023-03-15T23:24:07.699Z,14.13
2023-03-15T23:26:37.555Z,15.68
2023-03-15T23:29:10.595Z,15.00
2023-03-15T23:31:38.502Z,12.27
2023-03-15T23:34:06.067Z,17.83
2023-03-15T23:36:33.173Z,15.38
2023-03-15T23:39:00.222Z,13.77
2023-03-15T23:41:27.437Z,17.02
2023-03-15T23:43:54.028Z,21.95
2023-03-15T23:46:23.418Z,12.60
2023-03-15T23:48:52.274Z,18.92
2023-03-15T23:51:19.551Z,14.57
2023-03-15T23:53:46.183Z,16.33
2023-03-15T23:56:12.726Z,17.45
2023-03-15T23:58:39.309Z,23.10
